createdAt,value
2022-12-08T00:02:23.835Z,95772.28
2022-12-08T00:06:57.816Z,95775.84
2022-12-08T00:11:14.660Z,95778.19
2022-12-08T00:15:26.984Z,95766.72
2022-12-08T00:19:40.348Z,95771.31
2022-12-08T00:23:55.875Z,95777.28
2022-12-08T00:28:12.965Z,95751.44
2022-12-08T00:32:35.210Z,95745.19
2022-12-08T00:36:47.828Z,95759.72
2022-12-08T00:41:00.115Z,95742.34
2022-12-08T00:45:12.743Z,95746.31
2022-12-08T00:49:25.468Z,95742.69
2022-12-08T00:53:37.748Z,95739.28
2022-12-08T00:57:50.138Z,95733.53
2022-12-08T01:02:02.480Z,95735.84
2022-12-08T01:06:15.002Z,95730.06
2022-12-08T01:10:27.415Z,95742.78
2022-12-08T01:14:39.688Z,95727.13
2022-12-08T01:18:52.064Z,95740.25
2022-12-08T01:23:04.376Z,95731.16
2022-12-08T01:27:17.262Z,95739.16
2022-12-08T01:31:29.583Z,95730.34
2022-12-08T01:35:41.832Z,95725.97
2022-12-08T01:39:54.104Z,95728.31
2022-12-08T01:44:09.511Z,95746.47
2022-12-08T01:48:26.675Z,95736.25
2022-12-08T01:52:43.526Z,95728.22
2022-12-08T01:57:24.395Z,95726.41
2022-12-08T02:01:36.772Z,95698.31
2022-12-08T02:05:49.240Z,95713.34
2022-12-08T02:10:01.953Z,95701.69
2022-12-08T02:14:15.735Z,95707.31
2022-12-08T02:18:43.866Z,95699.06
2022-12-08T02:23:02.311Z,95692.50
2022-12-08T02:27:26.524Z,95689.13
2022-12-08T02:31:41.422Z,95677.53
2022-12-08T02:35:57.029Z,95682.06
2022-12-08T02:40:28.983Z,95676.72
2022-12-08T02:44:52.463Z,95678.50
2022-12-08T02:49:05.981Z,95666.28
2022-12-08T02:53:18.271Z,95666.41
2022-12-08T02:57:52.405Z,95667.16
2022-12-08T03:02:19.663Z,95659.91
2022-12-08T03:06:45.287Z,95657.38
2022-12-08T03:11:10.120Z,95659.69
2022-12-08T03:15:33.544Z,95665.06
2022-12-08T03:19:48.936Z,95659.94
2022-12-08T03:24:05.523Z,95660.22
2022-12-08T03:28:17.891Z,95644.31
2022-12-08T03:32:40.810Z,95646.38
2022-12-08T03:36:53.154Z,95651.59
2022-12-08T03:41:20.684Z,95650.81
2022-12-08T03:45:33.384Z,95650.34
2022-12-08T03:49:45.726Z,95636.78
2022-12-08T03:53:58.026Z,95651.22
2022-12-08T03:58:10.346Z,95638.09
2022-12-08T04:02:22.721Z,95638.72
2022-12-08T04:06:35.146Z,95632.09
2022-12-08T04:10:47.421Z,95629.34
2022-12-08T04:14:59.713Z,95626.28
2022-12-08T04:19:12.008Z,95621.13
2022-12-08T04:23:24.715Z,95627.44
2022-12-08T04:27:36.990Z,95621.69
2022-12-08T04:31:49.345Z,95610.91
2022-12-08T04:36:02.863Z,95629.47
2022-12-08T04:40:15.262Z,95618.75
2022-12-08T04:44:27.536Z,95612.03
2022-12-08T04:48:41.132Z,95612.06
2022-12-08T04:52:53.431Z,95609.81
2022-12-08T04:57:12.455Z,95608.31
2022-12-08T05:01:24.955Z,95602.97
2022-12-08T05:05:39.173Z,95610.81
2022-12-08T05:09:51.878Z,95602.97
2022-12-08T05:14:04.158Z,95599.75
2022-12-08T05:18:17.357Z,95596.75
2022-12-08T05:22:29.642Z,95623.66
2022-12-08T05:26:41.921Z,95601.69
2022-12-08T05:30:54.260Z,95600.94
2022-12-08T05:35:07.119Z,95598.56
2022-12-08T05:39:19.560Z,95599.66
2022-12-08T05:43:32.460Z,95592.69
2022-12-08T05:47:44.764Z,95606.16
2022-12-08T05:51:57.100Z,95585.44
2022-12-08T05:56:09.392Z,95588.03
2022-12-08T06:00:22.292Z,95600.84
2022-12-08T06:04:34.767Z,95591.28
2022-12-08T06:08:47.187Z,95589.44
2022-12-08T06:12:59.450Z,95592.78
2022-12-08T06:17:11.765Z,95572.81
2022-12-08T06:21:24.322Z,95588.78
2022-12-08T06:25:36.699Z,95582.72
2022-12-08T06:29:50.934Z,95574.06
2022-12-08T06:34:03.320Z,95580.34
2022-12-08T06:38:15.631Z,95584.53
2022-12-08T06:42:47.926Z,95584.31
2022-12-08T06:47:00.539Z,95584.31
2022-12-08T06:51:16.218Z,95570.94
2022-12-08T07:00:02.091Z,95575.22
2022-12-08T07:04:14.641Z,95580.34
2022-12-08T07:08:27.001Z,95596.41
2022-12-08T07:12:39.325Z,95589.91
2022-12-08T07:16:53.189Z,95596.59
2022-12-08T07:21:16.274Z,95582.78
2022-12-08T07:25:28.557Z,95583.13
2022-12-08T07:29:40.892Z,95581.50
2022-12-08T07:33:53.792Z,95607.34
2022-12-08T07:38:16.064Z,95595.16
2022-12-08T07:42:29.249Z,95590.69
2022-12-08T07:46:41.603Z,95590.13
2022-12-08T07:51:02.020Z,95593.78
2022-12-08T07:55:14.364Z,95591.09
2022-12-08T07:59:26.627Z,95594.66
2022-12-08T08:03:38.919Z,95591.19
2022-12-08T08:07:51.359Z,95598.16
2022-12-08T08:12:29.799Z,95596.28
2022-12-08T08:16:38.588Z,95600.72
2022-12-08T08:20:51.124Z,95596.28
2022-12-08T08:25:07.792Z,95591.97
2022-12-08T08:29:20.111Z,95577.66
2022-12-08T08:33:32.729Z,95592.53
2022-12-08T08:37:51.546Z,95578.63
2022-12-08T08:42:04.076Z,95583.88
2022-12-08T08:46:16.432Z,95598.50
2022-12-08T08:50:34.325Z,95592.44
2022-12-08T08:54:49.592Z,95578.44
2022-12-08T08:59:03.774Z,95592.13
2022-12-08T09:03:16.749Z,95581.41
2022-12-08T09:07:29.146Z,95593.53
2022-12-08T09:11:41.591Z,95584.50
2022-12-08T09:15:53.939Z,95594.16
2022-12-08T09:20:08.218Z,95592.41
2022-12-08T09:24:20.597Z,95585.94
2022-12-08T09:28:33.672Z,95581.34
2022-12-08T09:32:45.947Z,95570.69
2022-12-08T09:37:08.451Z,95571.03
2022-12-08T09:41:40.383Z,95580.31
2022-12-08T09:46:02.805Z,95564.94
2022-12-08T09:50:25.965Z,95551.97
2022-12-08T09:54:38.270Z,95545.19
2022-12-08T09:58:51.123Z,95551.19
2022-12-08T10:03:16.452Z,95546.91
2022-12-08T10:08:02.104Z,95531.63
2022-12-08T10:12:23.699Z,95533.22
2022-12-08T10:16:41.146Z,95512.31
2022-12-08T10:20:53.560Z,95522.81
2022-12-08T10:25:19.090Z,95519.72
2022-12-08T10:29:31.384Z,95506.03
2022-12-08T10:33:45.341Z,95499.66
2022-12-08T10:37:58.852Z,95499.78
2022-12-08T10:42:22.745Z,95488.69
2022-12-08T10:46:38.869Z,95483.66
2022-12-08T10:50:51.140Z,95476.81
2022-12-08T10:55:03.447Z,95469.03
2022-12-08T10:59:19.652Z,95482.66
2022-12-08T11:03:59.988Z,95463.53
2022-12-08T11:08:12.507Z,95447.59
2022-12-08T11:12:29.162Z,95456.13
2022-12-08T11:16:56.022Z,95448.69
2022-12-08T11:21:19.561Z,95450.63
2022-12-08T11:25:32.580Z,95442.84
2022-12-08T11:29:44.891Z,95437.47
2022-12-08T11:33:57.620Z,95433.25
2022-12-08T11:38:22.135Z,95431.78
2022-12-08T11:43:07.003Z,95421.03
2022-12-08T11:47:37.356Z,95414.03
2022-12-08T11:52:03.633Z,95420.00
2022-12-08T11:56:46.777Z,95419.84
2022-12-08T12:00:59.383Z,95413.56
2022-12-08T12:10:36.966Z,95409.59
2022-12-08T12:14:58.177Z,95400.94
2022-12-08T12:19:20.207Z,95398.91
2022-12-08T12:23:44.550Z,95397.28
2022-12-08T12:28:09.985Z,95387.53
2022-12-08T12:32:22.855Z,95389.66
2022-12-08T12:37:06.638Z,95387.19
2022-12-08T12:41:25.880Z,95391.28
2022-12-08T12:45:44.239Z,95390.41
2022-12-08T12:50:07.805Z,95380.22
2022-12-08T12:54:28.895Z,95371.28
2022-12-08T12:58:43.197Z,95374.50
2022-12-08T13:02:58.504Z,95381.53
2022-12-08T13:07:24.935Z,95375.00
2022-12-08T13:11:49.893Z,95364.56
2022-12-08T13:16:25.942Z,95371.69
2022-12-08T13:20:52.203Z,95361.03
2022-12-08T13:25:45.669Z,95365.19
2022-12-08T13:30:43.122Z,95359.31
2022-12-08T13:35:01.203Z,95348.66
2022-12-08T13:39:22.441Z,95354.50
2022-12-08T13:44:20.125Z,95353.13
2022-12-08T13:49:52.680Z,95351.56
2022-12-08T13:58:00.882Z,95353.78
2022-12-08T14:02:31.118Z,95357.34
2022-12-08T14:06:47.335Z,95363.34
2022-12-08T14:11:03.846Z,95359.47
2022-12-08T14:15:29.171Z,95367.94
2022-12-08T14:20:16.884Z,95369.63
2022-12-08T14:24:32.351Z,95371.59
2022-12-08T14:28:52.423Z,95380.09
2022-12-08T14:33:05.966Z,95371.59
2022-12-08T14:37:33.891Z,95364.34
2022-12-08T14:42:02.868Z,95366.75
2022-12-08T14:46:23.764Z,95361.84
2022-12-08T14:50:42.492Z,95352.59
2022-12-08T14:54:56.144Z,95356.97
2022-12-08T14:59:16.046Z,95357.09
2022-12-08T15:03:31.876Z,95356.13
2022-12-08T15:07:59.833Z,95349.38
2022-12-08T15:12:26.392Z,95353.19
2022-12-08T15:16:43.425Z,95348.94
2022-12-08T15:21:02.036Z,95353.50
2022-12-08T15:25:14.617Z,95353.06
2022-12-08T15:29:29.520Z,95359.63
2022-12-08T15:33:41.887Z,95348.91
2022-12-08T15:37:54.269Z,95359.59
2022-12-08T15:42:13.256Z,95360.34
2022-12-08T15:46:35.754Z,95357.41
2022-12-08T15:50:56.942Z,95366.31
2022-12-08T15:55:16.419Z,95371.00
2022-12-08T15:59:34.552Z,95362.94
2022-12-08T16:13:55.454Z,95351.88
2022-12-08T16:17:43.406Z,95353.44
2022-12-08T16:27:28.576Z,95350.63
2022-12-08T16:31:00.410Z,95359.31
2022-12-08T16:35:13.988Z,95352.03
2022-12-08T16:39:26.374Z,95344.34
2022-12-08T16:43:38.691Z,95342.63
2022-12-08T16:47:54.314Z,95342.72
2022-12-08T16:52:07.074Z,95333.25
2022-12-08T16:56:21.513Z,95335.75
2022-12-08T17:00:37.789Z,95331.16
2022-12-08T17:04:50.411Z,95337.16
2022-12-08T17:09:02.796Z,95337.19
2022-12-08T17:13:17.730Z,95328.56
2022-12-08T17:17:36.205Z,95331.72
2022-12-08T17:21:48.511Z,95335.34
2022-12-08T17:26:01.808Z,95328.75
2022-12-08T17:30:16.430Z,95330.25
2022-12-08T17:34:28.985Z,95309.72
2022-12-08T17:38:41.313Z,95315.59
2022-12-08T17:43:03.578Z,95309.97
2022-12-08T17:47:16.030Z,95319.03
2022-12-08T17:51:28.366Z,95303.25
2022-12-08T17:55:41.759Z,95308.69
2022-12-08T17:59:54.096Z,95313.19
2022-12-08T18:04:08.627Z,95314.69
2022-12-08T18:08:21.048Z,95308.44
2022-12-08T18:31:16.556Z,95316.66
2022-12-08T18:35:29.618Z,95316.31
2022-12-08T18:39:41.973Z,95310.25
2022-12-08T18:43:56.085Z,95309.53
2022-12-08T18:48:08.403Z,95290.00
2022-12-08T18:52:28.155Z,95298.41
2022-12-08T18:56:43.488Z,95300.38
2022-12-08T19:00:55.893Z,95298.19
2022-12-08T19:05:12.044Z,95298.69
2022-12-08T19:09:36.458Z,95314.78
2022-12-08T19:18:23.459Z,95301.56
2022-12-08T19:22:36.169Z,95295.34
2022-12-08T19:26:48.568Z,95311.34
2022-12-08T19:31:06.564Z,95319.16
2022-12-08T19:35:18.979Z,95302.53
2022-12-08T19:39:50.044Z,95318.94
2022-12-08T19:44:20.222Z,95318.25
2022-12-08T19:48:32.622Z,95315.63
2022-12-08T19:52:45.829Z,95313.09
2022-12-08T19:56:58.298Z,95307.69
2022-12-08T20:01:10.604Z,95289.25
2022-12-08T20:05:35.137Z,95298.94
2022-12-08T20:09:57.448Z,95303.00
2022-12-08T20:14:10.451Z,95309.19
2022-12-08T20:18:23.325Z,95296.88
2022-12-08T20:22:46.463Z,95295.19
2022-12-08T20:26:58.825Z,95290.19
2022-12-08T20:31:25.723Z,95301.13
2022-12-08T20:35:38.262Z,95293.06
2022-12-08T20:39:53.197Z,95306.47
2022-12-08T20:44:07.177Z,95296.72
2022-12-08T20:48:30.004Z,95296.72
2022-12-08T20:52:43.383Z,95294.25
2022-12-08T20:56:57.347Z,95294.34
2022-12-08T21:01:12.919Z,95300.63
2022-12-08T21:05:26.483Z,95281.97
2022-12-08T21:09:40.390Z,95281.00
2022-12-08T21:13:54.362Z,95276.59
2022-12-08T21:18:08.016Z,95278.69
2022-12-08T21:22:25.761Z,95274.50
2022-12-08T21:26:40.110Z,95262.94
2022-12-08T21:30:53.382Z,95251.38
2022-12-08T21:35:07.752Z,95266.22
2022-12-08T21:39:21.383Z,95270.44
2022-12-08T21:43:45.363Z,95259.25
2022-12-08T21:48:04.414Z,95264.75
2022-12-08T21:52:20.512Z,95274.25
2022-12-08T21:56:46.699Z,95296.97
2022-12-08T22:02:22.804Z,95283.25
2022-12-08T22:07:03.556Z,95266.31
2022-12-08T22:16:44.461Z,95288.41
2022-12-08T22:26:46.797Z,95269.84
2022-12-08T22:31:55.800Z,95271.72
2022-12-08T22:36:50.263Z,95277.47
2022-12-08T22:52:26.980Z,95263.22
2022-12-08T22:57:17.574Z,95243.75
2022-12-08T23:22:48.994Z,95246.44
2022-12-08T23:27:33.907Z,95243.72
2022-12-08T23:37:38.972Z,95236.72
2022-12-08T23:42:47.430Z,95215.31
